Portada
METAR-TAF:

METAR-TAF

Aeroports :

Kunming, Xina

latitud: 25-01N, longitud: 102-41E, altitud: 1892 m

Observació

L'informe es va fer fa 20 minuts, a les 04:00 UTC
Vent 8 kt del Est/Nord-Est, variant entre Nord/Nord-Est i Est
Temperatura 16°C
Humitat 51%
Pressió 1024 hPa
Visibilitat: 8000 m
Escasses núvols a una alçada de 2600 ft

METAR: ZPPP 230400Z 06004MPS 020V100 8000 FEW026 16/06 Q1024 NOSIG

Hora: 12:20 (04:20 UTC)

Pronòstic

L'informe es va fer fa 9 hores i 5 minuts, a les 19:15 UTC
Pronòstic vàlid del 23 a les 00 UTC al 23 a les 24 UTC
Vent 8 kt del Nord-Est
Visibilitat 10 km o més
Núvols disperses a una alçada de 2600 ft
Evolucionant progressivament
l' 23 a les 03 UTC al 23 a les 04 UTC
Vent 12 kt del Sud-Oest

TAF: ZPPP 221915Z 2300/2324 04004MPS 9999 SCT026 TX20/2308Z TN08/2323Z BECMG 2303/2304 23006MPS

Observacions i pronòstics meteorològics de més de 4000 aeroports (METAR i TAF).

Les estacions disponibles són els punts grocs i vermells al mapa.

Posi el ratolí al punt desitjat per veure el nom de l'estació.

Feu clic per veure les observacions i els pronòstics meteorològics.

Per canviar el mapa: feu clic els botons verds amb una creu de color negre per apropar; al botó verd amb un guió per allunyar la imatge; o en les fletxes verdes per a mapes adjacents.


METAR-TAF: